createdAt,value
2022-12-20T00:00:46.607Z,20.20
2022-12-20T00:03:52.916Z,21.55
2022-12-20T00:06:55.785Z,19.37
2022-12-20T00:10:01.213Z,20.90
2022-12-20T00:13:05.303Z,20.10
2022-12-20T00:16:09.989Z,21.33
2022-12-20T00:19:14.151Z,19.27
2022-12-20T00:22:16.859Z,22.33
2022-12-20T00:25:22.600Z,21.00
2022-12-20T00:28:26.797Z,22.10
2022-12-20T00:31:33.463Z,22.02
2022-12-20T00:34:37.483Z,20.33
2022-12-20T00:37:40.604Z,20.43
2022-12-20T00:40:45.897Z,19.73
2022-12-20T00:43:50.801Z,19.25
2022-12-20T00:46:53.834Z,18.63
2022-12-20T00:49:57.795Z,20.23
2022-12-20T00:53:00.771Z,20.13
2022-12-20T00:56:06.238Z,20.73
2022-12-20T00:59:10.232Z,23.40
2022-12-20T01:02:13.485Z,17.80
2022-12-20T01:05:17.607Z,19.40
2022-12-20T01:08:21.141Z,20.17
2022-12-20T01:11:29.431Z,20.73
2022-12-20T01:14:34.291Z,22.77
2022-12-20T01:17:37.265Z,20.13
2022-12-20T01:20:41.260Z,19.63
2022-12-20T01:23:43.995Z,18.20
2022-12-20T01:26:50.178Z,18.77
2022-12-20T01:29:54.238Z,20.13
2022-12-20T01:32:56.969Z,22.58
2022-12-20T01:36:02.738Z,20.67
2022-12-20T01:39:08.739Z,22.60
2022-12-20T01:42:16.618Z,22.13
2022-12-20T01:45:29.023Z,20.30
2022-12-20T01:48:32.047Z,20.42
2022-12-20T01:51:40.487Z,22.08
2022-12-20T01:54:47.804Z,20.80
2022-12-20T01:57:58.824Z,18.83
2022-12-20T02:01:02.893Z,20.33
2022-12-20T02:04:05.881Z,21.67
2022-12-20T02:07:12.087Z,20.50
2022-12-20T02:10:16.607Z,18.43
2022-12-20T02:13:35.835Z,18.60
2022-12-20T02:16:46.602Z,18.33
2022-12-20T02:20:24.469Z,19.30
2022-12-20T02:24:03.400Z,18.73
2022-12-20T02:27:45.463Z,19.10
2022-12-20T02:30:54.834Z,20.37
2022-12-20T02:34:00.588Z,17.75
2022-12-20T02:37:03.820Z,19.40
2022-12-20T02:40:09.425Z,19.52
2022-12-20T02:43:28.296Z,18.10
2022-12-20T02:46:33.900Z,18.87
2022-12-20T02:49:42.317Z,19.33
2022-12-20T02:52:45.715Z,17.55
2022-12-20T02:55:55.214Z,20.25
2022-12-20T03:02:27.911Z,19.60
2022-12-20T03:05:33.119Z,16.77
2022-12-20T03:08:36.608Z,19.85
2022-12-20T03:11:40.691Z,20.67
2022-12-20T03:14:44.023Z,19.47
2022-12-20T03:17:49.289Z,17.10
2022-12-20T03:20:52.026Z,21.58
2022-12-20T03:23:54.971Z,18.92
2022-12-20T03:26:59.597Z,18.77
2022-12-20T03:30:02.357Z,20.30
2022-12-20T03:33:07.693Z,18.63
2022-12-20T03:36:10.528Z,18.25
2022-12-20T03:39:13.290Z,18.50
2022-12-20T03:42:17.534Z,19.63
2022-12-20T03:45:20.343Z,22.27
2022-12-20T03:48:25.624Z,16.40
2022-12-20T03:51:29.777Z,18.17
2022-12-20T03:54:32.611Z,19.73
2022-12-20T03:57:36.441Z,18.52
2022-12-20T04:00:39.410Z,15.63
2022-12-20T04:03:44.913Z,17.23
2022-12-20T04:06:49.355Z,15.32
2022-12-20T04:09:52.248Z,18.65
2022-12-20T04:12:56.071Z,22.57
2022-12-20T04:16:00.872Z,17.30
2022-12-20T04:19:06.555Z,18.45
2022-12-20T04:22:10.491Z,17.83
2022-12-20T04:25:13.742Z,19.23
2022-12-20T04:28:17.599Z,15.32
2022-12-20T04:31:24.167Z,17.10
2022-12-20T04:34:30.096Z,18.25
2022-12-20T04:37:34.065Z,18.30
2022-12-20T04:40:38.743Z,13.80
2022-12-20T04:43:42.608Z,15.35
2022-12-20T04:46:45.611Z,18.67
2022-12-20T04:49:50.831Z,18.38
2022-12-20T04:53:12.371Z,18.37
2022-12-20T04:56:16.795Z,21.17
2022-12-20T04:59:20.628Z,18.25
2022-12-20T05:02:23.561Z,17.33
2022-12-20T05:05:29.203Z,16.48
2022-12-20T05:08:31.925Z,16.60
2022-12-20T05:11:35.764Z,17.53
2022-12-20T05:14:40.143Z,17.80
2022-12-20T05:17:42.831Z,17.13
2022-12-20T05:21:11.774Z,18.55
2022-12-20T05:24:31.834Z,17.40
2022-12-20T05:27:35.666Z,18.03
2022-12-20T05:30:38.760Z,17.38
2022-12-20T05:33:41.558Z,17.50
2022-12-20T05:36:46.856Z,18.63
2022-12-20T05:39:50.446Z,17.10
2022-12-20T05:42:54.315Z,18.97
2022-12-20T05:45:57.060Z,19.75
2022-12-20T05:49:01.198Z,17.60
2022-12-20T05:52:06.927Z,20.55
2022-12-20T05:55:10.423Z,18.33
2022-12-20T05:58:15.467Z,19.87
2022-12-20T06:01:18.344Z,19.15
2022-12-20T06:04:22.794Z,18.25
2022-12-20T06:07:30.020Z,17.27
2022-12-20T06:10:34.598Z,18.63
2022-12-20T06:13:38.788Z,16.30
2022-12-20T06:16:41.986Z,17.27
2022-12-20T06:19:45.883Z,20.50
2022-12-20T06:22:51.159Z,17.05
2022-12-20T06:25:54.341Z,18.77
2022-12-20T06:32:24.876Z,20.25
2022-12-20T06:35:29.149Z,19.85
2022-12-20T06:38:34.663Z,21.10
2022-12-20T06:41:38.170Z,18.97
2022-12-20T06:44:42.012Z,18.77
2022-12-20T06:47:44.724Z,21.60
2022-12-20T06:50:55.451Z,20.35
2022-12-20T06:54:01.431Z,16.55
2022-12-20T06:57:04.320Z,19.03
2022-12-20T07:00:11.669Z,21.13
2022-12-20T07:03:14.971Z,19.52
2022-12-20T07:06:19.098Z,17.42
2022-12-20T07:09:24.374Z,19.40
2022-12-20T07:12:27.147Z,19.60
2022-12-20T07:15:33.567Z,19.90
2022-12-20T07:18:36.432Z,19.67
2022-12-20T07:21:40.833Z,22.48
2022-12-20T07:24:46.455Z,22.98
2022-12-20T07:27:49.875Z,19.10
2022-12-20T07:30:52.955Z,21.17
2022-12-20T07:33:55.699Z,20.00
2022-12-20T07:36:59.237Z,21.38
2022-12-20T07:40:06.877Z,19.23
2022-12-20T07:43:11.719Z,20.27
2022-12-20T07:46:17.642Z,20.60
2022-12-20T07:49:20.459Z,23.05
2022-12-20T07:52:27.557Z,22.77
2022-12-20T07:55:34.641Z,19.35
2022-12-20T07:58:40.856Z,22.23
2022-12-20T08:01:46.604Z,20.37
2022-12-20T08:04:51.001Z,20.65
2022-12-20T08:07:59.387Z,21.67
2022-12-20T08:11:04.775Z,24.70
2022-12-20T08:14:11.572Z,20.57
2022-12-20T08:17:15.219Z,20.50
2022-12-20T08:20:18.938Z,18.77
2022-12-20T08:23:22.472Z,21.75
2022-12-20T08:26:27.102Z,21.77
2022-12-20T08:29:29.965Z,19.90
2022-12-20T08:32:32.727Z,24.73
2022-12-20T08:35:35.453Z,23.83
2022-12-20T08:38:39.322Z,24.60
2022-12-20T08:41:43.491Z,23.00
2022-12-20T08:44:46.335Z,21.13
2022-12-20T08:47:49.109Z,23.70
2022-12-20T08:50:56.429Z,20.48
2022-12-20T08:53:59.400Z,21.10
2022-12-20T08:57:03.632Z,23.67
2022-12-20T09:00:07.888Z,20.57
2022-12-20T09:03:11.738Z,24.77
2022-12-20T09:06:16.430Z,22.73
2022-12-20T09:09:19.472Z,23.95
2022-12-20T09:12:23.563Z,25.20
2022-12-20T09:15:27.676Z,25.37
2022-12-20T09:18:30.492Z,22.67
2022-12-20T09:21:33.307Z,24.27
2022-12-20T09:24:38.534Z,25.80
2022-12-20T09:27:47.274Z,21.60
2022-12-20T09:30:50.107Z,26.37
2022-12-20T09:33:55.005Z,22.27
2022-12-20T09:36:59.444Z,24.02
2022-12-20T09:40:02.759Z,25.65
2022-12-20T09:43:11.988Z,23.55
2022-12-20T09:46:16.488Z,23.17
2022-12-20T09:49:22.736Z,23.70
2022-12-20T09:52:50.516Z,24.25
2022-12-20T09:56:01.026Z,21.83
2022-12-20T09:59:08.858Z,22.50
2022-12-20T10:02:44.419Z,23.57
2022-12-20T10:05:47.255Z,23.13
2022-12-20T10:08:56.787Z,21.90
2022-12-20T10:12:14.717Z,24.15
2022-12-20T10:15:26.497Z,19.40
2022-12-20T10:18:49.239Z,24.33
2022-12-20T10:22:00.199Z,21.33
2022-12-20T10:25:16.409Z,23.67
2022-12-20T10:28:26.359Z,23.50
2022-12-20T10:31:33.445Z,20.55
2022-12-20T10:34:40.001Z,23.67
2022-12-20T10:38:07.920Z,20.27
2022-12-20T10:41:21.825Z,20.23
2022-12-20T10:44:28.504Z,21.48
2022-12-20T10:47:42.456Z,19.60
2022-12-20T10:50:57.785Z,22.77
2022-12-20T10:54:04.286Z,19.53
2022-12-20T10:57:20.808Z,20.17
2022-12-20T11:00:31.165Z,24.15
2022-12-20T11:03:36.912Z,21.88
2022-12-20T11:06:45.492Z,21.73
2022-12-20T11:09:59.161Z,19.40
2022-12-20T11:13:05.597Z,21.25
2022-12-20T11:16:37.289Z,21.15
2022-12-20T11:19:57.681Z,20.40
2022-12-20T11:23:19.787Z,19.97
2022-12-20T11:26:38.640Z,19.97
2022-12-20T11:30:05.966Z,21.13
2022-12-20T11:33:26.027Z,17.63
2022-12-20T11:36:50.254Z,18.88
2022-12-20T11:40:05.390Z,18.80
2022-12-20T11:43:54.177Z,19.67
2022-12-20T11:47:17.688Z,19.35
2022-12-20T11:50:45.595Z,18.05
2022-12-20T11:53:58.485Z,19.70
2022-12-20T11:57:05.399Z,16.87
2022-12-20T12:00:14.230Z,16.13
2022-12-20T12:03:28.394Z,17.73
2022-12-20T12:06:39.868Z,15.27
2022-12-20T12:09:56.482Z,15.38
2022-12-20T12:13:17.302Z,17.57
2022-12-20T12:16:25.518Z,14.97
2022-12-20T12:19:30.861Z,15.93
2022-12-20T12:22:41.921Z,17.65
2022-12-20T12:25:47.711Z,13.90
2022-12-20T12:28:57.819Z,15.87
2022-12-20T12:32:06.321Z,15.57
2022-12-20T12:35:40.189Z,16.02
2022-12-20T12:39:10.306Z,15.02
2022-12-20T12:42:46.012Z,14.80
2022-12-20T12:45:51.482Z,18.80
2022-12-20T12:49:01.201Z,16.03
2022-12-20T12:52:07.231Z,16.88
2022-12-20T12:55:45.545Z,16.75
2022-12-20T12:59:21.815Z,16.10
2022-12-20T13:02:36.426Z,17.40
2022-12-20T13:05:46.905Z,15.23
2022-12-20T13:09:10.808Z,14.57
2022-12-20T13:12:50.713Z,14.70
2022-12-20T13:16:16.454Z,14.88
2022-12-20T13:19:32.490Z,15.40
2022-12-20T13:22:35.531Z,16.10
2022-12-20T13:25:40.432Z,16.65
2022-12-20T13:28:46.870Z,17.23
2022-12-20T13:31:54.605Z,16.15
2022-12-20T13:35:01.038Z,15.93
2022-12-20T13:38:06.365Z,17.73
2022-12-20T13:41:20.287Z,16.20
2022-12-20T13:44:38.470Z,16.55
2022-12-20T13:47:52.534Z,15.55
2022-12-20T13:50:56.880Z,15.87
2022-12-20T13:54:06.058Z,19.83
2022-12-20T13:57:12.732Z,16.45
2022-12-20T14:00:18.930Z,16.08
2022-12-20T14:03:26.333Z,16.33
2022-12-20T14:06:29.531Z,16.40
2022-12-20T14:09:35.461Z,17.40
2022-12-20T14:12:44.919Z,15.70
2022-12-20T14:15:48.334Z,16.75
2022-12-20T14:19:03.094Z,14.85
2022-12-20T14:22:06.719Z,16.53
2022-12-20T14:25:13.125Z,16.10
2022-12-20T14:28:32.893Z,17.10
2022-12-20T14:31:41.469Z,15.88
2022-12-20T14:34:45.646Z,15.20
2022-12-20T14:37:54.812Z,19.73
2022-12-20T14:40:58.383Z,15.80
2022-12-20T14:44:07.129Z,15.65
2022-12-20T14:47:19.592Z,16.63
2022-12-20T14:50:31.447Z,16.88
2022-12-20T14:53:36.071Z,16.47
2022-12-20T14:56:48.003Z,16.07
2022-12-20T15:00:00.607Z,15.32
2022-12-20T15:03:13.169Z,16.87
2022-12-20T15:06:33.059Z,17.25
2022-12-20T15:09:38.809Z,16.48
2022-12-20T15:12:44.252Z,17.85
2022-12-20T15:15:47.196Z,17.55
2022-12-20T15:18:51.173Z,17.47
2022-12-20T15:21:55.860Z,19.67
2022-12-20T15:25:01.180Z,16.42
2022-12-20T15:28:06.074Z,16.95
2022-12-20T15:31:14.154Z,17.30
2022-12-20T15:34:32.231Z,18.27
2022-12-20T15:37:39.698Z,18.35
2022-12-20T15:40:42.509Z,17.40
2022-12-20T15:43:47.188Z,19.35
2022-12-20T15:46:50.467Z,20.42
2022-12-20T15:49:53.582Z,17.83
2022-12-20T15:52:58.398Z,18.55
2022-12-20T15:56:03.827Z,17.67
2022-12-20T15:59:32.545Z,20.20
2022-12-20T16:02:38.212Z,20.75
2022-12-20T16:05:43.633Z,19.07
2022-12-20T16:08:47.908Z,21.58
2022-12-20T16:11:53.355Z,21.73
2022-12-20T16:14:57.870Z,19.35
2022-12-20T16:18:00.676Z,20.52
2022-12-20T16:21:05.336Z,20.27
2022-12-20T16:24:13.883Z,21.10
2022-12-20T16:27:16.975Z,21.77
2022-12-20T16:30:23.424Z,23.58
2022-12-20T16:33:27.204Z,20.15
2022-12-20T16:36:30.707Z,19.63
2022-12-20T16:39:35.820Z,19.80
2022-12-20T16:42:38.619Z,20.65
2022-12-20T16:45:41.521Z,21.20
2022-12-20T16:48:46.653Z,19.52
2022-12-20T16:51:52.566Z,21.77
2022-12-20T16:54:58.865Z,20.90
2022-12-20T16:58:01.823Z,22.02
2022-12-20T17:01:04.797Z,22.95
2022-12-20T17:04:09.794Z,20.80
2022-12-20T17:07:14.191Z,22.23
2022-12-20T17:10:20.999Z,19.92
2022-12-20T17:13:24.235Z,21.88
2022-12-20T17:16:28.008Z,19.60
2022-12-20T17:19:30.833Z,21.38
2022-12-20T17:25:55.261Z,21.33
2022-12-20T17:29:00.577Z,21.75
2022-12-20T17:32:03.964Z,20.67
2022-12-20T17:35:08.171Z,21.50
2022-12-20T17:38:11.089Z,21.27
2022-12-20T17:41:23.196Z,20.08
2022-12-20T17:44:29.762Z,20.33
2022-12-20T17:47:33.887Z,21.73
2022-12-20T17:50:36.593Z,21.35
2022-12-20T17:53:39.567Z,19.87
2022-12-20T17:56:43.683Z,21.98
2022-12-20T17:59:48.033Z,22.50
2022-12-20T18:02:50.928Z,19.88
2022-12-20T18:09:18.299Z,17.20
2022-12-20T18:12:22.394Z,21.20
2022-12-20T18:15:26.649Z,22.92
2022-12-20T18:18:36.564Z,21.63
2022-12-20T18:21:40.419Z,22.75
2022-12-20T18:24:44.392Z,22.50
2022-12-20T18:27:48.657Z,21.23
2022-12-20T18:30:52.651Z,22.23
2022-12-20T18:33:58.360Z,22.83
2022-12-20T18:37:01.835Z,22.80
2022-12-20T18:43:28.417Z,25.08
2022-12-20T18:46:31.239Z,21.85
2022-12-20T18:49:35.659Z,24.58
2022-12-20T18:52:41.159Z,22.83
2022-12-20T18:55:45.906Z,21.77
2022-12-20T18:58:50.071Z,21.00
2022-12-20T19:01:53.212Z,23.02
2022-12-20T19:04:57.265Z,23.35
2022-12-20T19:07:59.994Z,21.33
2022-12-20T19:11:08.404Z,21.70
2022-12-20T19:14:13.522Z,22.42
2022-12-20T19:17:17.935Z,23.60
2022-12-20T19:20:21.181Z,24.98
2022-12-20T19:23:25.125Z,21.02
2022-12-20T19:26:30.964Z,20.67
2022-12-20T19:29:35.462Z,20.98
2022-12-20T19:32:39.505Z,20.83
2022-12-20T19:35:55.334Z,21.88
2022-12-20T19:39:00.752Z,24.40
2022-12-20T19:42:23.710Z,23.83
2022-12-20T19:45:30.079Z,22.92
2022-12-20T19:48:34.465Z,20.45
2022-12-20T19:51:38.810Z,23.35
2022-12-20T19:54:43.052Z,22.15
2022-12-20T19:57:47.300Z,20.50
2022-12-20T20:00:52.854Z,17.83
2022-12-20T20:03:57.194Z,19.88
2022-12-20T20:07:01.290Z,23.48
2022-12-20T20:10:04.221Z,21.50
2022-12-20T20:13:09.878Z,21.87
2022-12-20T20:16:21.945Z,21.35
2022-12-20T20:19:25.810Z,24.60
2022-12-20T20:22:29.810Z,21.40
2022-12-20T20:25:35.397Z,21.38
2022-12-20T20:28:45.017Z,21.30
2022-12-20T20:31:51.358Z,22.10
2022-12-20T20:34:54.457Z,21.85
2022-12-20T20:37:58.485Z,18.65
2022-12-20T20:41:01.808Z,21.50
2022-12-20T20:47:29.340Z,24.25
2022-12-20T20:50:32.466Z,21.10
2022-12-20T20:53:37.148Z,21.80
2022-12-20T20:56:39.893Z,21.73
2022-12-20T20:59:45.922Z,21.15
2022-12-20T21:02:51.587Z,22.77
2022-12-20T21:09:18.995Z,21.35
2022-12-20T21:12:23.383Z,21.97
2022-12-20T21:15:28.081Z,21.58
2022-12-20T21:18:33.629Z,20.02
2022-12-20T21:21:36.400Z,21.35
2022-12-20T21:24:40.958Z,20.00
2022-12-20T21:27:45.492Z,23.40
2022-12-20T21:30:48.505Z,26.58
2022-12-20T21:33:53.983Z,20.63
2022-12-20T21:36:57.147Z,20.95
2022-12-20T21:40:01.163Z,19.88
2022-12-20T21:43:03.949Z,20.37
2022-12-20T21:46:11.093Z,20.30
2022-12-20T21:49:16.091Z,22.95
2022-12-20T21:52:18.973Z,21.38
2022-12-20T21:55:25.536Z,20.92
2022-12-20T21:58:30.274Z,21.60
2022-12-20T22:01:33.246Z,20.23
2022-12-20T22:04:40.424Z,22.63
2022-12-20T22:07:43.259Z,19.92
2022-12-20T22:10:47.465Z,23.15
2022-12-20T22:13:56.706Z,22.47
2022-12-20T22:16:59.620Z,18.30
2022-12-20T22:23:25.529Z,22.27
2022-12-20T22:26:31.872Z,20.60
2022-12-20T22:29:36.022Z,20.80
2022-12-20T22:32:38.799Z,20.55
2022-12-20T22:35:44.343Z,22.60
2022-12-20T22:38:48.203Z,23.33
2022-12-20T22:41:52.675Z,21.25
2022-12-20T22:44:56.927Z,23.40
2022-12-20T22:47:59.915Z,22.75
2022-12-20T22:51:07.802Z,20.95
2022-12-20T22:54:10.568Z,21.02
2022-12-20T22:57:14.771Z,22.75
2022-12-20T23:00:19.203Z,22.77
2022-12-20T23:03:22.019Z,21.00
2022-12-20T23:06:27.589Z,22.77
2022-12-20T23:09:30.485Z,23.08
2022-12-20T23:12:52.072Z,23.45
2022-12-20T23:15:56.139Z,22.67
2022-12-20T23:19:00.399Z,23.00
2022-12-20T23:22:23.263Z,22.13
2022-12-20T23:25:26.387Z,22.52
2022-12-20T23:28:30.777Z,22.13
2022-12-20T23:31:35.694Z,22.50
2022-12-20T23:34:38.485Z,24.33
2022-12-20T23:37:43.331Z,21.42
2022-12-20T23:40:46.078Z,25.33
2022-12-20T23:43:50.369Z,23.48
2022-12-20T23:46:54.411Z,23.87
2022-12-20T23:49:57.118Z,26.00
2022-12-20T23:53:03.091Z,24.17
2022-12-20T23:56:08.308Z,24.00
2022-12-20T23:59:12.430Z,24.20
